Terminal Aerodrome Forecast
Issued by NWS Grand Forks, ND

Home | Current Version | Previous Version | Text Only | Print | Product List | Glossary Off
Versions: 1 2 3 4 5 6 7 8 9 10 11 12 13 14

000
FTUS43 KFGF 060500
TAFGFK
TAF
KGFK 060537Z 0606/0706 20012KT P6SM SCT080
     FM060900 24012KT P6SM SCT250
     FM061900 26014KT P6SM BKN120
     FM062300 21015KT P6SM BKN050
     FM070300 32015G23KT P6SM BKN050=

USA.gov is the U.S. government's official web portal to all federal, state and local government web resources and services.